Time;durP1;ratioP1;P1;durP2;ratioP2;P2;SDS_P1;SDS_P2;PMS_P1;PMS_P2;Temp;Humidity;BMP_temperature;BMP_pressure;BME280_temperature;BME280_humidity;BME280_pressure;Samples;Min_cycle;Max_cycle;Signal;HPM_P1;HPM_P2
2021/06/19 00:00:54;;;;;;;13.70;1.64;;;;;;;21.15;57.81;101189.93;466610;111;933243;-70
2021/06/19 00:01:58;;;;;;;6.87;1.46;;;;;;;21.15;57.83;101192.70;469596;112;931329;-69
2021/06/19 00:03:03;;;;;;;5.70;1.70;;;;;;;21.15;57.79;101198.25;466614;112;924062;-69
2021/06/19 00:04:07;;;;;;;9.88;2.35;;;;;;;21.14;57.83;101199.31;462540;112;924055;-68
2021/06/19 00:05:12;;;;;;;6.39;2.28;;;;;;;21.12;57.86;101191.26;463515;112;924658;-66
2021/06/19 00:06:16;;;;;;;8.94;1.55;;;;;;;21.12;57.88;101196.80;454602;114;924155;-67
2021/06/19 00:07:20;;;;;;;8.48;2.91;;;;;;;21.10;58.14;101185.17;456321;112;924718;-68
2021/06/19 00:08:24;;;;;;;7.72;1.85;;;;;;;21.10;58.14;101185.17;467216;111;931936;-68
2021/06/19 00:09:28;;;;;;;7.64;1.74;;;;;;;21.12;58.31;101195.97;467239;112;927045;-69
2021/06/19 00:10:33;;;;;;;6.35;1.67;;;;;;;21.11;58.45;101192.39;468276;112;924878;-67
2021/06/19 00:11:37;;;;;;;10.84;1.85;;;;;;;21.11;58.43;101192.39;466589;112;925410;-69
2021/06/19 00:12:42;;;;;;;6.08;2.24;;;;;;;21.11;58.49;101188.78;465162;112;923925;-68
2021/06/19 00:13:46;;;;;;;9.21;1.49;;;;;;;21.11;58.65;101197.94;464662;112;925646;-69
2021/06/19 00:14:49;;;;;;;3.66;1.26;;;;;;;21.10;58.67;101192.66;469196;112;925781;-68
2021/06/19 00:15:53;;;;;;;14.44;2.06;;;;;;;21.10;58.61;101192.66;465784;112;932327;-67
2021/06/19 00:16:57;;;;;;;7.19;1.49;;;;;;;21.09;58.51;101190.98;465418;112;933513;-69
2021/06/19 00:18:01;;;;;;;7.31;1.58;;;;;;;21.08;58.52;101190.14;463150;112;924052;-69
2021/06/19 00:19:04;;;;;;;11.82;1.74;;;;;;;21.08;58.70;101190.14;464001;112;924055;-67
2021/06/19 00:20:11;;;;;;;8.26;2.10;;;;;;;21.07;58.69;101191.23;464560;112;922930;-69
2021/06/19 00:21:15;;;;;;;8.33;1.40;;;;;;;21.06;58.57;101195.11;469750;112;930490;-67
2021/06/19 00:22:19;;;;;;;7.08;1.52;;;;;;;21.04;58.19;101191.79;468340;112;922355;-68
2021/06/19 00:23:22;;;;;;;7.44;1.96;;;;;;;21.03;58.05;101189.28;469696;112;930334;-67
2021/06/19 00:24:26;;;;;;;8.33;1.52;;;;;;;21.03;58.05;101189.28;464143;112;930421;-69
2021/06/19 00:25:30;;;;;;;3.42;1.25;;;;;;;21.01;57.87;101200.63;467844;112;930446;-68
2021/06/19 00:26:34;;;;;;;4.95;1.46;;;;;;;21.00;57.73;101193.44;466473;112;922851;-68
2021/06/19 00:27:38;;;;;;;4.49;1.20;;;;;;;20.99;57.60;101194.54;463867;111;922885;-67
2021/06/19 00:28:42;;;;;;;2.76;1.37;;;;;;;20.98;57.65;101194.80;467396;111;922451;-68
2021/06/19 00:29:45;;;;;;;5.55;1.53;;;;;;;20.98;57.63;101195.64;462566;112;923781;-68
2021/06/19 00:30:51;;;;;;;7.38;1.48;;;;;;;20.97;57.64;101198.67;468040;112;925949;-68
2021/06/19 00:31:54;;;;;;;8.58;1.44;;;;;;;20.95;57.48;101196.16;465598;112;925711;-67
2021/06/19 00:32:58;;;;;;;3.54;1.18;;;;;;;20.94;57.49;101202.83;468071;112;925436;-67
2021/06/19 00:34:01;;;;;;;2.55;1.38;;;;;;;20.94;57.42;101202.83;464054;112;926284;-68
2021/06/19 00:35:06;;;;;;;5.86;1.20;;;;;;;20.93;57.37;101203.92;467752;112;925535;-66
2021/06/19 00:36:11;;;;;;;4.12;1.17;;;;;;;20.93;57.39;101203.09;462837;112;925856;-68
2021/06/19 00:37:14;;;;;;;3.77;1.14;;;;;;;20.92;57.38;101201.41;466421;112;923935;-68
2021/06/19 00:38:18;;;;;;;3.01;1.25;;;;;;;20.92;57.33;101209.73;464229;112;924563;-68
2021/06/19 00:39:21;;;;;;;2.64;1.13;;;;;;;20.91;57.37;101205.28;468311;112;925083;-65
2021/06/19 00:40:25;;;;;;;4.62;1.31;;;;;;;20.90;57.47;101203.61;461624;112;922902;-66
2021/06/19 00:41:29;;;;;;;3.77;1.09;;;;;;;20.90;57.54;101209.98;466618;112;924011;-67
2021/06/19 00:42:34;;;;;;;2.92;1.66;;;;;;;20.89;57.60;101210.28;466010;112;931763;-69
2021/06/19 00:43:40;;;;;;;2.96;1.36;;;;;;;20.88;57.56;101209.44;464672;108;924054;31
2021/06/19 00:44:44;;;;;;;4.57;1.41;;;;;;;20.88;57.55;101209.44;448252;117;924070;-68
2021/06/19 00:45:48;;;;;;;3.87;1.47;;;;;;;20.88;57.51;101209.44;464661;113;924502;-68
2021/06/19 00:46:54;;;;;;;6.05;1.59;;;;;;;20.87;57.51;101205.00;460518;112;932006;-70
2021/06/19 00:47:57;;;;;;;2.88;1.51;;;;;;;20.86;57.36;101208.86;455192;113;924884;-68
2021/06/19 00:49:01;;;;;;;4.65;1.16;;;;;;;20.85;57.32;101214.67;454036;113;925754;-68
2021/06/19 00:50:07;;;;;;;3.84;1.15;;;;;;;20.84;57.38;101208.28;454776;113;924128;-68
2021/06/19 00:51:10;;;;;;;2.82;1.13;;;;;;;20.82;57.37;101207.73;456759;113;925253;-69
2021/06/19 00:52:14;;;;;;;2.64;1.19;;;;;;;20.81;57.35;101208.84;460105;113;924511;-66
2021/06/19 00:53:18;;;;;;;8.75;1.29;;;;;;;20.79;57.17;101206.32;463127;113;926614;-69
2021/06/19 00:54:22;;;;;;;5.82;1.14;;;;;;;20.78;57.22;101212.16;463260;113;931922;-68
2021/06/19 00:55:26;;;;;;;3.36;1.42;;;;;;;20.75;57.22;101207.13;459405;113;923992;-67
2021/06/19 00:56:33;;;;;;;6.24;1.19;;;;;;;20.75;57.32;101215.44;457585;113;922706;-69
2021/06/19 00:57:36;;;;;;;3.37;1.08;;;;;;;20.73;57.32;101212.93;455301;113;923974;-68
2021/06/19 00:58:40;;;;;;;8.97;1.56;;;;;;;20.74;57.16;101209.06;465282;113;924602;-68
2021/06/19 00:59:44;;;;;;;4.79;1.55;;;;;;;20.74;57.17;101216.54;457399;113;929467;-68
2021/06/19 01:00:48;;;;;;;7.72;1.24;;;;;;;20.73;57.20;101210.16;455023;113;924067;-68
2021/06/19 01:01:54;;;;;;;3.24;1.27;;;;;;;20.72;57.08;101219.59;465048;113;924048;-65
2021/06/19 01:02:58;;;;;;;3.34;1.21;;;;;;;20.72;57.19;101221.53;454315;113;930136;-68
2021/06/19 01:04:03;;;;;;;4.49;1.25;;;;;;;20.72;57.32;101215.99;464019;113;922854;-67
2021/06/19 01:05:09;;;;;;;3.13;1.21;;;;;;;20.71;57.16;101217.09;455324;113;922480;-68
2021/06/19 01:06:13;;;;;;;5.07;1.74;;;;;;;20.71;57.14;101223.47;454290;115;922640;-67
2021/06/19 01:07:17;;;;;;;1.70;1.24;;;;;;;20.71;57.17;101217.92;456957;113;922494;-68
2021/06/19 01:08:21;;;;;;;4.02;1.21;;;;;;;20.72;57.11;101213.22;459559;113;922896;-69
2021/06/19 01:09:24;;;;;;;8.29;1.13;;;;;;;20.71;57.02;101217.92;458343;113;930123;-68
2021/06/19 01:10:29;;;;;;;4.22;1.45;;;;;;;20.72;56.98;101218.77;464916;113;922813;-69
2021/06/19 01:11:33;;;;;;;5.99;1.32;;;;;;;20.72;56.96;101218.77;460295;113;922910;-68
2021/06/19 01:12:40;;;;;;;10.41;1.94;;;;;;;20.71;57.01;101222.63;458402;113;922490;-67
2021/06/19 01:13:44;;;;;;;6.26;1.72;;;;;;;20.70;57.00;101216.25;464404;113;922545;-70
2021/06/19 01:14:47;;;;;;;6.39;1.32;;;;;;;20.69;56.96;101213.73;454778;113;922853;-69
2021/06/19 01:15:50;;;;;;;5.80;1.06;;;;;;;20.68;56.90;101210.13;458847;113;930412;-68
2021/06/19 01:16:56;;;;;;;5.05;1.22;;;;;;;20.68;56.97;101217.59;455423;113;923019;-68
2021/06/19 01:18:00;;;;;;;3.77;1.05;;;;;;;20.66;56.95;101219.83;463183;113;922787;-68
2021/06/19 01:19:03;;;;;;;10.97;1.51;;;;;;;20.66;56.87;101219.83;462170;113;930165;-67
2021/06/19 01:20:14;;;;;;;3.84;1.16;;;;;;;20.64;56.90;101210.93;454185;113;922505;-69
2021/06/19 01:21:20;;;;;;;2.76;1.37;;;;;;;20.64;56.94;101219.24;458621;113;922436;-69
2021/06/19 01:22:24;;;;;;;5.56;1.37;;;;;;;20.64;56.98;101220.08;458580;113;924509;-66
2021/06/19 01:23:28;;;;;;;5.04;1.06;;;;;;;20.62;57.01;101215.92;466065;113;923972;-68
2021/06/19 01:24:32;;;;;;;9.28;1.27;;;;;;;20.62;56.97;101218.70;459124;113;926606;-68
2021/06/19 01:25:38;;;;;;;3.28;1.23;;;;;;;20.61;56.98;101217.02;463716;113;924107;-66
2021/06/19 01:26:43;;;;;;;8.24;0.99;;;;;;;20.60;57.04;101223.66;464009;113;922754;-68
2021/06/19 01:27:49;;;;;;;4.91;1.16;;;;;;;20.59;56.95;101222.81;462764;113;923997;-70
2021/06/19 01:28:54;;;;;;;2.78;1.06;;;;;;;20.58;56.96;101221.14;465573;113;925296;-69
2021/06/19 01:30:00;;;;;;;2.87;0.94;;;;;;;20.59;57.09;101230.29;466611;113;922985;-67
2021/06/19 01:31:03;;;;;;;3.02;1.13;;;;;;;20.59;57.09;101230.29;464991;113;922855;-66
2021/06/19 01:32:07;;;;;;;3.94;1.29;;;;;;;20.58;57.21;101229.45;455774;113;922813;-67
2021/06/19 01:33:11;;;;;;;2.65;0.99;;;;;;;20.57;57.15;101227.77;454012;113;930333;-67
2021/06/19 01:34:14;;;;;;;3.46;1.30;;;;;;;20.56;57.18;101228.91;466083;113;922918;-67
2021/06/19 01:35:19;;;;;;;5.23;1.27;;;;;;;20.55;56.97;101232.77;458211;113;925537;-67
2021/06/19 01:36:25;;;;;;;3.30;1.19;;;;;;;20.54;57.06;101224.71;456043;113;931902;-67
2021/06/19 01:37:28;;;;;;;4.18;1.02;;;;;;;20.54;57.27;101235.80;454296;113;924581;-70
2021/06/19 01:38:43;;;;;;;7.23;2.00;;;;;;;20.54;57.23;101233.02;454037;113;924071;-69
2021/06/19 01:39:47;;;;;;;3.24;0.83;;;;;;;20.53;57.13;101239.66;463304;113;924070;-67
2021/06/19 01:40:51;;;;;;;4.94;1.14;;;;;;;20.52;57.13;101236.05;458360;113;924027;-68
2021/06/19 01:41:54;;;;;;;5.62;2.69;;;;;;;20.51;57.18;101233.56;464847;113;924092;-67
2021/06/19 01:43:00;;;;;;;6.53;3.21;;;;;;;20.51;57.38;101239.11;465967;113;924006;-67
2021/06/19 01:44:09;;;;;;;6.78;2.47;;;;;;;20.51;57.37;101241.88;465854;113;924782;-67
2021/06/19 01:45:28;;;;;;;4.55;1.48;;;;;;;20.51;57.42;101239.11;460447;113;924493;-69
2021/06/19 01:46:34;;;;;;;6.09;1.43;;;;;;;20.50;57.49;101237.44;462395;113;922462;-66
2021/06/19 01:47:39;;;;;;;3.57;1.19;;;;;;;20.49;57.43;101241.30;454894;113;924017;-69
2021/06/19 01:48:43;;;;;;;4.57;1.04;;;;;;;20.48;57.41;101231.31;455711;113;924558;-68
2021/06/19 01:49:46;;;;;;;3.34;1.33;;;;;;;20.47;57.49;101237.94;455485;113;924091;-67
2021/06/19 01:50:50;;;;;;;4.62;0.98;;;;;;;20.45;57.28;101235.46;455743;113;932479;-69
2021/06/19 01:51:54;;;;;;;2.93;1.02;;;;;;;20.44;57.28;101238.48;459055;113;924196;-68
2021/06/19 01:52:59;;;;;;;5.17;1.39;;;;;;;20.42;57.34;101240.67;464345;113;926758;-69
2021/06/19 01:54:02;;;;;;;5.05;1.14;;;;;;;20.40;57.49;101235.39;465399;113;924716;-69
2021/06/19 01:55:08;;;;;;;4.01;0.99;;;;;;;20.39;57.55;101236.52;457534;113;926533;-69
2021/06/19 01:56:12;;;;;;;2.48;1.18;;;;;;;20.38;57.51;101246.75;453744;113;932016;-68
2021/06/19 01:57:15;;;;;;;5.80;0.96;;;;;;;20.38;57.53;101243.98;454805;113;922635;-68
2021/06/19 01:58:19;;;;;;;4.08;2.09;;;;;;;20.38;57.58;101237.61;458783;113;922905;-67
2021/06/19 01:59:23;;;;;;;6.56;4.82;;;;;;;20.39;57.59;101236.52;454314;113;923037;-68
2021/06/19 02:00:29;;;;;;;4.32;1.45;;;;;;;20.39;57.53;101248.44;454126;113;922386;-67
2021/06/19 02:01:32;;;;;;;1.98;0.86;;;;;;;20.37;57.51;101234.00;464694;113;922451;-67
2021/06/19 02:02:38;;;;;;;7.08;0.84;;;;;;;20.37;57.53;101239.54;464409;113;922946;-67
2021/06/19 02:03:43;;;;;;;7.43;1.21;;;;;;;20.37;57.54;101244.23;454817;113;922494;-67
2021/06/19 02:04:47;;;;;;;9.29;0.96;;;;;;;20.37;57.54;101247.84;464905;113;923375;-68
2021/06/19 02:05:51;;;;;;;3.88;1.01;;;;;;;20.36;57.43;101242.56;465902;113;922898;-67
2021/06/19 02:06:54;;;;;;;3.66;1.02;;;;;;;20.36;57.51;101243.41;456171;113;922806;-67
2021/06/19 02:08:00;;;;;;;3.59;1.12;;;;;;;20.36;57.64;101243.41;462392;113;923045;-68
2021/06/19 02:09:09;;;;;;;3.37;1.07;;;;;;;20.36;57.47;101240.63;459286;113;924010;-68
2021/06/19 02:10:15;;;;;;;4.22;0.99;;;;;;;20.35;57.33;101240.89;456694;113;926795;-68
2021/06/19 02:11:19;;;;;;;4.87;0.88;;;;;;;20.35;57.28;101241.72;454592;113;924132;-67
2021/06/19 02:12:23;;;;;;;4.99;1.02;;;;;;;20.36;57.26;101245.33;457417;113;924059;-68
2021/06/19 02:13:27;;;;;;;2.92;0.96;;;;;;;20.37;57.55;101247.84;465966;113;933597;-69
2021/06/19 02:14:32;;;;;;;4.14;1.13;;;;;;;20.37;57.53;101236.77;465689;113;931735;-66
2021/06/19 02:15:37;;;;;;;1.92;0.76;;;;;;;20.37;57.38;101253.39;466315;113;925365;-67
2021/06/19 02:16:43;;;;;;;4.27;0.94;;;;;;;20.38;57.51;101248.69;458024;113;933532;-67
2021/06/19 02:17:47;;;;;;;3.98;1.38;;;;;;;20.38;57.57;101246.75;455263;113;924035;-67
2021/06/19 02:18:51;;;;;;;3.16;1.06;;;;;;;20.38;57.47;101248.69;466181;113;932336;-67
2021/06/19 02:19:54;;;;;;;4.74;1.16;;;;;;;20.37;57.64;101247.84;466000;113;924104;-68
2021/06/19 02:20:58;;;;;;;5.35;1.46;;;;;;;20.39;57.81;101250.36;465165;113;924338;-68
2021/06/19 02:22:02;;;;;;;2.49;1.32;;;;;;;20.39;57.72;101253.97;454047;113;932418;-68
2021/06/19 02:23:06;;;;;;;4.25;0.94;;;;;;;20.39;57.67;101247.59;454552;113;924053;-67
2021/06/19 02:24:11;;;;;;;3.72;0.84;;;;;;;20.40;57.35;101249.23;455097;113;932978;-67
2021/06/19 02:25:17;;;;;;;3.69;0.91;;;;;;;20.39;57.34;101245.66;466327;113;933857;-68
2021/06/19 02:26:23;;;;;;;5.59;1.12;;;;;;;20.39;57.39;101248.44;456201;113;924004;-67
2021/06/19 02:27:27;;;;;;;2.59;0.84;;;;;;;20.40;57.51;101240.93;456219;113;924101;-67
2021/06/19 02:28:30;;;;;;;2.44;0.89;;;;;;;20.41;57.58;101248.14;455070;113;925070;-68
2021/06/19 02:29:34;;;;;;;2.49;0.80;;;;;;;20.43;57.44;101248.73;461225;113;932641;-68
2021/06/19 02:30:42;;;;;;;1.34;0.85;;;;;;;20.44;57.32;101252.34;465150;113;922872;-66
2021/06/19 02:31:46;;;;;;;3.44;0.88;;;;;;;20.44;57.34;101247.63;458949;113;932078;-67
2021/06/19 02:32:51;;;;;;;3.29;0.96;;;;;;;20.45;57.53;101246.55;463188;113;924097;-68
2021/06/19 02:33:55;;;;;;;3.69;1.03;;;;;;;20.46;57.62;101253.73;466149;113;925463;-68
2021/06/19 02:34:59;;;;;;;1.98;0.71;;;;;;;20.47;57.70;101258.17;465875;113;923905;-68
2021/06/19 02:36:03;;;;;;;2.31;0.99;;;;;;;20.49;57.76;101250.45;466214;113;933747;-66
2021/06/19 02:37:07;;;;;;;4.04;0.94;;;;;;;20.49;57.61;101257.92;456112;113;924072;-68
2021/06/19 02:38:11;;;;;;;3.07;0.82;;;;;;;20.49;57.48;101257.92;454296;113;925898;-68
2021/06/19 02:39:15;;;;;;;2.58;1.49;;;;;;;20.49;57.50;101255.98;455817;113;932531;-67
2021/06/19 02:40:20;;;;;;;2.66;0.98;;;;;;;20.51;57.70;101258.50;454690;113;924461;-67
2021/06/19 02:41:24;;;;;;;3.05;0.95;;;;;;;20.50;57.62;101259.59;461764;113;926353;-67
2021/06/19 02:42:28;;;;;;;5.28;1.12;;;;;;;20.52;57.62;101260.15;457977;113;922991;-66
2021/06/19 02:43:32;;;;;;;5.48;1.09;;;;;;;20.53;57.59;101259.05;454832;113;924171;-67
2021/06/19 02:44:36;;;;;;;5.91;1.14;;;;;;;20.52;57.31;101258.22;465410;113;922436;-67
2021/06/19 02:45:41;;;;;;;1.85;0.82;;;;;;;20.52;57.38;101258.22;450515;116;923055;-67
2021/06/19 02:46:46;;;;;;;4.68;1.05;;;;;;;20.53;57.37;101264.59;455930;116;922388;-68
2021/06/19 02:47:52;;;;;;;1.53;0.79;;;;;;;20.52;57.45;101268.45;447456;116;922941;-67
2021/06/19 02:48:56;;;;;;;4.41;0.96;;;;;;;20.53;57.56;101253.52;437327;121;922657;-68
2021/06/19 02:50:00;;;;;;;4.15;1.22;;;;;;;20.53;57.57;101259.89;437376;119;922405;-68
2021/06/19 02:51:04;;;;;;;3.52;0.96;;;;;;;20.54;57.45;101260.73;437313;121;930107;-68
2021/06/19 02:52:09;;;;;;;2.39;0.95;;;;;;;20.54;57.53;101263.50;430192;123;924450;-68
2021/06/19 02:53:13;;;;;;;6.28;1.21;;;;;;;20.55;57.61;101271.55;443678;119;922792;-68
2021/06/19 02:54:16;;;;;;;2.36;0.96;;;;;;;20.55;57.68;101271.55;435595;121;922443;-68
2021/06/19 02:55:23;;;;;;;5.21;0.96;;;;;;;20.56;57.79;101264.92;435568;120;923030;-68
2021/06/19 02:56:27;;;;;;;2.56;1.26;;;;;;;20.57;57.67;101269.34;440347;119;930831;-69
2021/06/19 02:57:30;;;;;;;3.25;1.11;;;;;;;20.57;57.59;101272.11;436809;120;923933;-66
2021/06/19 02:58:34;;;;;;;4.73;1.44;;;;;;;20.58;57.75;101272.95;436924;120;931706;-69
2021/06/19 02:59:38;;;;;;;4.71;1.50;;;;;;;20.59;57.59;101274.63;437134;120;924172;-68
2021/06/19 03:00:43;;;;;;;2.52;1.25;;;;;;;20.59;57.33;101274.63;437353;119;932653;-68
2021/06/19 03:01:47;;;;;;;3.82;0.98;;;;;;;20.61;57.10;101275.20;434485;121;923949;-68
2021/06/19 03:02:51;;;;;;;5.79;1.14;;;;;;;20.60;56.93;101281.84;432176;120;927895;-68
2021/06/19 03:03:54;;;;;;;2.98;0.78;;;;;;;20.59;56.91;101275.47;429380;121;926946;-68
2021/06/19 03:04:58;;;;;;;4.62;1.11;;;;;;;20.61;57.11;101269.66;436830;121;924195;-68
2021/06/19 03:06:02;;;;;;;3.50;1.13;;;;;;;20.61;57.07;101275.20;441605;119;924061;-68
2021/06/19 03:07:06;;;;;;;4.09;1.29;;;;;;;20.60;57.07;101265.22;428192;120;931719;-68
2021/06/19 03:08:09;;;;;;;3.42;1.02;;;;;;;20.60;57.11;101277.14;434704;121;924070;-67
2021/06/19 03:09:13;;;;;;;2.37;0.89;;;;;;;20.61;57.20;101276.05;432737;120;931710;-68
2021/06/19 03:10:21;;;;;;;7.48;1.35;;;;;;;20.62;57.29;101276.88;434193;120;926744;-68
2021/06/19 03:11:25;;;;;;;4.67;1.50;;;;;;;20.62;57.20;101271.34;433897;120;923003;-67
2021/06/19 03:12:29;;;;;;;4.16;1.10;;;;;;;20.61;56.82;101276.05;435417;120;923688;-67
2021/06/19 03:13:32;;;;;;;3.16;0.90;;;;;;;20.61;56.75;101269.66;432426;120;924083;-70
2021/06/19 03:14:36;;;;;;;2.50;1.17;;;;;;;20.60;56.71;101270.76;436871;120;924120;-69
2021/06/19 03:15:39;;;;;;;3.71;1.34;;;;;;;20.59;57.06;101269.92;436855;120;931349;-69
2021/06/19 03:16:44;;;;;;;5.35;1.14;;;;;;;20.60;57.36;101271.59;430659;120;932780;-69
2021/06/19 03:17:47;;;;;;;2.06;1.26;;;;;;;20.61;57.08;101267.73;430229;120;924098;-67
2021/06/19 03:18:51;;;;;;;4.04;1.21;;;;;;;20.62;56.96;101263.03;433027;120;931774;-67
2021/06/19 03:19:54;;;;;;;3.39;1.01;;;;;;;20.62;56.76;101265.80;433857;120;923396;-68
2021/06/19 03:20:58;;;;;;;1.91;0.86;;;;;;;20.64;56.75;101269.12;439209;120;930487;-67
2021/06/19 03:22:02;;;;;;;3.36;0.86;;;;;;;20.64;56.71;101266.34;436819;120;923137;-67
2021/06/19 03:23:06;;;;;;;5.15;1.98;;;;;;;20.64;56.60;101263.58;439106;120;931568;-67
2021/06/19 03:24:10;;;;;;;2.31;1.05;;;;;;;20.64;56.60;101260.81;432624;120;923710;-67
2021/06/19 03:25:17;;;;;;;4.87;1.16;;;;;;;20.64;56.39;101269.96;430572;120;931623;-67
2021/06/19 03:26:22;;;;;;;2.07;0.64;;;;;;;20.63;56.26;101264.67;435451;120;924704;-69
2021/06/19 03:27:26;;;;;;;4.18;0.99;;;;;;;20.63;56.33;101254.42;429711;120;926782;-69
2021/06/19 03:28:30;;;;;;;3.81;0.90;;;;;;;20.62;56.38;101255.52;438271;120;926141;-69
2021/06/19 03:29:34;;;;;;;5.67;1.37;;;;;;;20.64;56.46;101255.27;438631;120;925421;-69
2021/06/19 03:30:44;;;;;;;3.22;0.98;;;;;;;20.66;56.52;101258.62;430562;120;931949;-67
2021/06/19 03:31:48;;;;;;;8.04;1.28;;;;;;;20.68;56.49;101261.94;434828;120;924964;-67
2021/06/19 03:32:51;;;;;;;4.95;0.98;;;;;;;20.69;56.72;101255.30;433989;121;924569;-66
2021/06/19 03:33:55;;;;;;;7.37;2.44;;;;;;;20.70;56.67;101260.59;436866;120;924669;-68
2021/06/19 03:34:58;;;;;;;2.90;0.92;;;;;;;20.71;56.56;101253.95;432328;120;931858;-68
2021/06/19 03:36:02;;;;;;;3.00;0.98;;;;;;;20.73;56.62;101256.47;436266;120;924099;-67
2021/06/19 03:37:05;;;;;;;4.11;0.96;;;;;;;20.74;56.51;101261.72;431296;120;924123;-67
2021/06/19 03:38:10;;;;;;;3.57;1.20;;;;;;;20.76;56.37;101262.30;435913;120;931721;-68
2021/06/19 03:39:15;;;;;;;2.56;1.10;;;;;;;20.77;56.29;101254.83;434029;120;931768;-68
2021/06/19 03:40:21;;;;;;;3.11;0.88;;;;;;;20.78;56.33;101262.84;432970;120;922554;-67
2021/06/19 03:41:26;;;;;;;1.72;0.82;;;;;;;20.80;56.21;101260.66;434387;120;924527;-68
2021/06/19 03:42:30;;;;;;;3.41;0.89;;;;;;;20.81;56.26;101254.02;436613;120;923828;-68
2021/06/19 03:43:33;;;;;;;4.87;1.62;;;;;;;20.84;56.10;101254.60;434396;120;926851;-66
2021/06/19 03:44:37;;;;;;;5.45;0.76;;;;;;;20.85;56.10;101259.02;432931;120;924048;-67
2021/06/19 03:45:41;;;;;;;6.11;1.24;;;;;;;20.87;56.10;101256.83;436072;118;931970;-67
2021/06/19 03:46:44;;;;;;;7.06;1.09;;;;;;;20.87;56.22;101254.89;440663;118;922949;-68
2021/06/19 03:47:48;;;;;;;3.70;1.81;;;;;;;20.90;56.33;101256.28;446517;118;922556;-68
2021/06/19 03:48:52;;;;;;;6.01;2.44;;;;;;;20.92;56.30;101254.92;446572;118;922783;-68
2021/06/19 03:49:55;;;;;;;3.50;1.24;;;;;;;20.93;56.29;101256.60;438444;118;922545;-68
2021/06/19 03:50:59;;;;;;;5.26;0.84;;;;;;;;;;443628;118;930427;-65
2021/06/19 03:52:03;;;;;;;5.61;0.97;;;;;;;20.98;56.47;101256.63;437078;119;925443;-68
2021/06/19 03:53:08;;;;;;;2.58;1.01;;;;;;;20.99;56.17;101255.53;437118;121;926922;-68
2021/06/19 03:54:11;;;;;;;3.19;1.46;;;;;;;21.02;55.96;101260.53;437151;121;926262;-69
2021/06/19 03:55:15;;;;;;;2.02;0.97;;;;;;;21.04;56.00;101257.50;437534;121;924524;-69
2021/06/19 03:56:19;;;;;;;2.21;0.72;;;;;;;21.03;55.87;101256.66;441276;118;930195;-67
2021/06/19 03:57:26;;;;;;;3.51;1.15;;;;;;;21.06;55.74;101253.34;440954;118;932740;-67
2021/06/19 03:58:30;;;;;;;3.19;1.06;;;;;;;21.07;55.69;101260.56;446682;118;924039;-68
2021/06/19 03:59:35;;;;;;;9.19;0.88;;;;;;;21.09;55.76;101252.81;445416;118;924057;-67
2021/06/19 04:00:42;;;;;;;5.62;1.18;;;;;;;21.11;55.54;101258.94;441601;118;924068;-69
2021/06/19 04:01:45;;;;;;;3.17;0.90;;;;;;;21.13;55.47;101255.88;446389;118;928064;-68
2021/06/19 04:02:50;;;;;;;4.31;0.99;;;;;;;21.14;55.34;101252.88;441939;118;922957;-69
2021/06/19 04:03:54;;;;;;;1.96;0.86;;;;;;;21.17;55.09;101257.06;439322;120;924492;-65
2021/06/19 04:04:58;;;;;;;3.88;0.87;;;;;;;21.17;55.00;101255.10;432082;120;925722;-67
2021/06/19 04:06:04;;;;;;;4.72;0.94;;;;;;;21.19;55.17;101257.61;439860;117;924062;-66
2021/06/19 04:07:09;;;;;;;8.45;1.00;;;;;;;21.20;55.24;101253.74;441432;118;926117;-69
2021/06/19 04:08:13;;;;;;;5.31;0.99;;;;;;;21.21;55.27;101250.71;445749;118;924581;-65
2021/06/19 04:09:17;;;;;;;3.58;1.01;;;;;;;21.23;55.18;101251.25;442974;118;924542;-66
2021/06/19 04:10:25;;;;;;;4.44;1.23;;;;;;;21.25;55.15;101259.31;443724;118;924561;-67
2021/06/19 04:11:29;;;;;;;4.88;1.17;;;;;;;21.26;55.22;101247.13;441858;118;923994;-68
2021/06/19 04:12:32;;;;;;;7.78;1.22;;;;;;;21.27;54.98;101259.89;446412;118;924737;-68
2021/06/19 04:13:36;;;;;;;5.78;1.31;;;;;;;21.28;55.04;101253.22;443174;118;924016;-68
2021/06/19 04:14:40;;;;;;;4.44;1.07;;;;;;;21.29;54.84;101254.89;445117;119;931676;-69
2021/06/19 04:15:43;;;;;;;5.32;1.08;;;;;;;21.30;54.63;101251.02;440333;118;933041;-67
2021/06/19 04:16:47;;;;;;;6.05;1.16;;;;;;;21.31;54.53;101251.86;443054;118;924090;-67
2021/06/19 04:17:51;;;;;;;4.55;1.16;;;;;;;21.30;54.55;101252.95;445563;118;923793;-68
2021/06/19 04:18:55;;;;;;;4.39;1.09;;;;;;;21.31;54.48;101251.86;442352;118;924499;-67
2021/06/19 04:19:58;;;;;;;4.47;1.28;;;;;;;21.31;54.47;101255.47;445370;118;924518;-68
2021/06/19 04:21:03;;;;;;;3.45;1.00;;;;;;;21.32;54.63;101256.30;437532;118;924079;-68
2021/06/19 04:22:07;;;;;;;3.08;1.12;;;;;;;21.32;54.50;101257.14;443413;119;931737;-66
2021/06/19 04:23:11;;;;;;;11.78;1.56;;;;;;;21.33;54.34;101257.98;446020;117;924654;-67
2021/06/19 04:24:15;;;;;;;6.08;1.78;;;;;;;21.33;54.12;101258.81;446746;118;924095;-67
2021/06/19 04:25:19;;;;;;;7.06;1.45;;;;;;;21.34;54.19;101254.08;444684;118;924149;-67
2021/06/19 04:26:23;;;;;;;9.10;1.24;;;;;;;21.35;54.26;101259.36;442421;118;927312;-67
2021/06/19 04:27:26;;;;;;;7.08;1.26;;;;;;;21.36;54.22;101252.72;444750;119;924017;-67
2021/06/19 04:28:31;;;;;;;2.96;1.12;;;;;;;21.37;54.30;101259.94;448889;117;924072;-67
2021/06/19 04:29:35;;;;;;;8.41;1.19;;;;;;;21.38;54.41;101269.09;446142;117;931707;-67
2021/06/19 04:30:40;;;;;;;3.77;1.20;;;;;;;21.39;54.56;101262.45;439517;120;924022;-67
2021/06/19 04:31:46;;;;;;;5.51;1.16;;;;;;;21.40;54.50;101262.16;433890;120;924412;-67
2021/06/19 04:32:51;;;;;;;4.05;1.22;;;;;;;21.43;54.36;101260.80;445066;118;924073;-68
2021/06/19 04:33:55;;;;;;;5.06;1.16;;;;;;;21.45;54.35;101261.34;447106;118;922561;-68
2021/06/19 04:34:58;;;;;;;3.48;1.08;;;;;;;21.47;54.52;101261.92;446762;118;922488;-68
2021/06/19 04:36:02;;;;;;;12.82;1.98;;;;;;;21.49;54.56;101271.66;446161;118;930402;-68
2021/06/19 04:37:09;;;;;;;7.24;1.25;;;;;;;21.52;54.38;101265.55;445056;118;930530;-67
2021/06/19 04:38:13;;;;;;;5.15;1.88;;;;;;;21.54;54.26;101273.61;440243;118;923009;-66
2021/06/19 04:39:17;;;;;;;6.60;1.45;;;;;;;21.58;54.27;101264.47;437811;118;923364;-68
2021/06/19 04:41:57;;;;;;;8.39;1.18;;;;;;;21.68;54.69;101271.16;445435;117;922480;-69
2021/06/19 04:43:05;;;;;;;5.97;1.20;;;;;;;21.71;54.78;101271.47;444267;117;922846;-69
2021/06/19 04:44:20;;;;;;;5.18;1.52;;;;;;;21.73;54.58;101269.23;437002;121;930355;-68
2021/06/19 04:45:14;;;;;;;7.19;1.80;;;;;;;21.77;54.60;101275.09;438303;118;922414;-68
2021/06/19 04:46:19;;;;;;;4.58;1.56;;;;;;;21.78;54.64;101274.80;439601;118;926777;-67
2021/06/19 04:47:25;;;;;;;2.68;1.23;;;;;;;21.82;54.53;101266.78;450966;114;924031;-67
2021/06/19 04:48:28;;;;;;;4.43;1.59;;;;;;;21.84;54.08;101272.88;464294;114;931689;-68
2021/06/19 04:49:32;;;;;;;7.73;1.40;;;;;;;21.85;53.98;101272.61;454674;114;924552;-66
2021/06/19 04:50:38;;;;;;;4.15;1.47;;;;;;;21.88;54.26;101262.92;450620;114;931867;-67
2021/06/19 04:51:41;;;;;;;4.02;1.59;;;;;;;21.89;53.91;101261.78;451188;114;924142;-67
2021/06/19 04:52:46;;;;;;;4.42;1.00;;;;;;;21.91;53.72;101265.97;452664;114;931683;-68
2021/06/19 04:53:54;;;;;;;3.98;1.21;;;;;;;21.93;53.85;101268.48;455300;114;931604;-67
2021/06/19 04:54:58;;;;;;;4.10;1.21;;;;;;;21.95;53.87;101263.50;451974;114;924586;-69
2021/06/19 04:56:03;;;;;;;1.99;0.94;;;;;;;21.96;53.52;101266.02;455531;114;922995;-67
2021/06/19 04:57:08;;;;;;;9.10;1.06;;;;;;;21.98;53.55;101268.52;452531;114;924145;-68
2021/06/19 04:58:11;;;;;;;5.49;1.20;;;;;;;22.01;53.69;101265.19;453384;114;925719;-66